Enterprise, KS (67441)

2:42 PM CST on January 30, 2015 (GMT -0600)
A.D. Olp Trucking Co | Change Station
CLOSE
Current Station
Personal Weather Station
Location: Abilene, KS
Elevation: 1146 ft
Nearby Weather Stations

Elev 1146 ft 38.90 °N, 97.22 °W | Updated 0 second ago

Partly Cloudy
Partly Cloudy
43.2 °F
Feels Like 40 °F
N
5.0
Wind Variable Wind from SW
Gusts 10.0 mph

Today
High -- | Low -- °F
--% Chance of Precip.
Yesterday
High -- | Low -- °F
Precip. -- in
7:36 AM 5:47 PM
Waxing Gibbous, 85% visible
Pressure 30.46 in
Visibility 10.0 miles
Clouds Clear
Windchill 40 °F
Dew Point 27 °F
Humidity 53%
Rainfall 0.00 in
Snow Depth Not available.
UV 3 out of 12
Pollen .10 out of 12
Air Quality Not available.
Flu Activity Not available.
METAR KFRI 301958Z AUTO 17006KT 10SM CLR 06/M04 A3043 RMK AO2 SLP314 T00601036

More Conditions Fewer Conditions

Pressure 30.46 in
Visibility 10.0 miles
Clouds Clear
Windchill 40 °F
Dew Point 27 °F
Humidity 53%
Rainfall 0.00 in
Snow Depth Not available.
UV 3 out of 12
Pollen .10 out of 12
Air Quality Not available.
Flu Activity Not available.
METAR KFRI 301958Z AUTO 17006KT 10SM CLR 06/M04 A3043 RMK AO2 SLP314 T00601036

More Conditions Fewer Conditions

10-Day Weather Forecast

Almanac

Astronomy

Jan. 30, 2015 Rise Set
Actual Time
Civil Twilight
Nautical Twilight
Astronomical Twilight
Moon
Length of Visible Light
Length of Day
Tomorrow will be .
, % of the Moon is Illuminated

Today's Extremes

State Highs State Lows

Community

WunderPhotos

Upload Photos

1,791,891 photos uploaded!

WunderBlogs® & News

Nearby

Air Quality

  Air Quality AQ Index Pollutant
Not available.

Snow Depth

Station Depth Elevation

Earthquake Activity

City Distance Mag. Time & Date
Minimum magnitude displayed is 2.5.

Coastal Water Temperatures

Place Temperature

Nearby Weather Stations